sensor_id;sensor_type;location;lat;lon;timestamp;temperature;humidity
17421;DHT22;8828;48.800;9.540;2023-04-03T00:00:49;6.30;99.90
17421;DHT22;8828;48.800;9.540;2023-04-03T00:03:17;6.30;99.90
17421;DHT22;8828;48.800;9.540;2023-04-03T00:05:45;6.20;99.90
17421;DHT22;8828;48.800;9.540;2023-04-03T00:08:14;6.20;99.90
17421;DHT22;8828;48.800;9.540;2023-04-03T00:10:42;6.10;99.90
17421;DHT22;8828;48.800;9.540;2023-04-03T00:13:11;6.10;99.90
17421;DHT22;8828;48.800;9.540;2023-04-03T00:15:41;6.10;99.90
17421;DHT22;8828;48.800;9.540;2023-04-03T00:18:09;6.10;99.90
17421;DHT22;8828;48.800;9.540;2023-04-03T00:20:37;6.10;99.90
17421;DHT22;8828;48.800;9.540;2023-04-03T00:23:05;6.10;99.90
17421;DHT22;8828;48.800;9.540;2023-04-03T00:25:33;6.20;99.90
17421;DHT22;8828;48.800;9.540;2023-04-03T00:28:02;6.20;99.90
17421;DHT22;8828;48.800;9.540;2023-04-03T00:30:30;6.20;99.90
17421;DHT22;8828;48.800;9.540;2023-04-03T00:33:00;6.20;99.90
17421;DHT22;8828;48.800;9.540;2023-04-03T00:35:28;6.20;99.90
17421;DHT22;8828;48.800;9.540;2023-04-03T00:37:56;6.20;99.90
17421;DHT22;8828;48.800;9.540;2023-04-03T00:40:26;6.20;99.90
17421;DHT22;8828;48.800;9.540;2023-04-03T00:42:57;6.20;99.90
17421;DHT22;8828;48.800;9.540;2023-04-03T00:45:34;6.20;99.90
17421;DHT22;8828;48.800;9.540;2023-04-03T00:48:06;6.20;99.90
17421;DHT22;8828;48.800;9.540;2023-04-03T00:50:36;6.20;99.90
17421;DHT22;8828;48.800;9.540;2023-04-03T00:53:06;6.20;99.90
17421;DHT22;8828;48.800;9.540;2023-04-03T00:55:35;6.10;99.90
17421;DHT22;8828;48.800;9.540;2023-04-03T00:58:05;6.10;99.90
17421;DHT22;8828;48.800;9.540;2023-04-03T01:00:35;6.10;99.90
17421;DHT22;8828;48.800;9.540;2023-04-03T01:03:06;6.10;99.90
17421;DHT22;8828;48.800;9.540;2023-04-03T01:05:34;6.00;99.90
17421;DHT22;8828;48.800;9.540;2023-04-03T01:08:02;6.00;99.90
17421;DHT22;8828;48.800;9.540;2023-04-03T01:10:30;6.00;99.90
17421;DHT22;8828;48.800;9.540;2023-04-03T01:12:59;5.90;99.90
17421;DHT22;8828;48.800;9.540;2023-04-03T01:15:28;5.90;99.90
17421;DHT22;8828;48.800;9.540;2023-04-03T01:17:58;5.90;99.90
17421;DHT22;8828;48.800;9.540;2023-04-03T01:21:05;5.80;99.90
17421;DHT22;8828;48.800;9.540;2023-04-03T01:23:46;5.80;99.90
17421;DHT22;8828;48.800;9.540;2023-04-03T01:26:16;5.70;99.90
17421;DHT22;8828;48.800;9.540;2023-04-03T01:28:44;5.70;99.90
17421;DHT22;8828;48.800;9.540;2023-04-03T01:31:18;5.60;99.90
17421;DHT22;8828;48.800;9.540;2023-04-03T01:33:49;5.60;99.90
17421;DHT22;8828;48.800;9.540;2023-04-03T01:36:22;5.60;99.90
17421;DHT22;8828;48.800;9.540;2023-04-03T01:38:51;5.60;99.90
17421;DHT22;8828;48.800;9.540;2023-04-03T01:41:19;5.50;99.90
17421;DHT22;8828;48.800;9.540;2023-04-03T01:43:48;5.50;99.90
17421;DHT22;8828;48.800;9.540;2023-04-03T01:46:16;5.50;99.90
17421;DHT22;8828;48.800;9.540;2023-04-03T01:48:45;5.50;99.90
17421;DHT22;8828;48.800;9.540;2023-04-03T01:51:14;5.50;99.90
17421;DHT22;8828;48.800;9.540;2023-04-03T01:53:42;5.50;99.90
17421;DHT22;8828;48.800;9.540;2023-04-03T01:56:10;5.50;99.90
17421;DHT22;8828;48.800;9.540;2023-04-03T01:58:38;5.50;99.90
17421;DHT22;8828;48.800;9.540;2023-04-03T02:01:06;5.50;99.90
17421;DHT22;8828;48.800;9.540;2023-04-03T02:03:34;5.50;99.90
17421;DHT22;8828;48.800;9.540;2023-04-03T02:06:02;5.60;99.90
17421;DHT22;8828;48.800;9.540;2023-04-03T02:08:31;5.60;99.90
17421;DHT22;8828;48.800;9.540;2023-04-03T02:10:59;5.60;99.90
17421;DHT22;8828;48.800;9.540;2023-04-03T02:13:27;5.60;99.90
17421;DHT22;8828;48.800;9.540;2023-04-03T02:15:55;5.60;99.90
17421;DHT22;8828;48.800;9.540;2023-04-03T02:18:23;5.70;99.90
17421;DHT22;8828;48.800;9.540;2023-04-03T02:20:51;5.80;99.90
17421;DHT22;8828;48.800;9.540;2023-04-03T02:23:19;5.80;99.90
17421;DHT22;8828;48.800;9.540;2023-04-03T02:25:48;5.90;99.90
17421;DHT22;8828;48.800;9.540;2023-04-03T02:28:16;5.90;99.90
17421;DHT22;8828;48.800;9.540;2023-04-03T02:30:44;6.00;99.90
17421;DHT22;8828;48.800;9.540;2023-04-03T02:33:12;6.00;99.90
17421;DHT22;8828;48.800;9.540;2023-04-03T02:35:40;6.00;99.90
17421;DHT22;8828;48.800;9.540;2023-04-03T02:38:08;6.00;99.90
17421;DHT22;8828;48.800;9.540;2023-04-03T02:40:36;6.00;99.90
17421;DHT22;8828;48.800;9.540;2023-04-03T02:43:06;6.10;99.90
17421;DHT22;8828;48.800;9.540;2023-04-03T02:45:34;6.10;99.90
17421;DHT22;8828;48.800;9.540;2023-04-03T02:48:03;6.10;99.90
17421;DHT22;8828;48.800;9.540;2023-04-03T02:50:31;6.10;99.90
17421;DHT22;8828;48.800;9.540;2023-04-03T02:52:59;6.10;99.90
17421;DHT22;8828;48.800;9.540;2023-04-03T02:55:27;6.20;99.90
17421;DHT22;8828;48.800;9.540;2023-04-03T02:57:55;6.20;99.90
17421;DHT22;8828;48.800;9.540;2023-04-03T03:00:24;6.20;99.90
17421;DHT22;8828;48.800;9.540;2023-04-03T03:02:52;6.20;99.90
17421;DHT22;8828;48.800;9.540;2023-04-03T03:05:20;6.20;99.90
17421;DHT22;8828;48.800;9.540;2023-04-03T03:07:48;6.20;99.90
17421;DHT22;8828;48.800;9.540;2023-04-03T03:10:16;6.20;99.90
17421;DHT22;8828;48.800;9.540;2023-04-03T03:12:44;6.30;99.90
17421;DHT22;8828;48.800;9.540;2023-04-03T03:15:12;6.30;99.90
17421;DHT22;8828;48.800;9.540;2023-04-03T03:17:41;6.30;99.90
17421;DHT22;8828;48.800;9.540;2023-04-03T03:20:11;6.30;99.90
17421;DHT22;8828;48.800;9.540;2023-04-03T03:22:40;6.30;99.90
17421;DHT22;8828;48.800;9.540;2023-04-03T03:25:08;6.30;99.90
17421;DHT22;8828;48.800;9.540;2023-04-03T03:27:37;6.30;99.90
17421;DHT22;8828;48.800;9.540;2023-04-03T03:30:06;6.30;99.90
17421;DHT22;8828;48.800;9.540;2023-04-03T03:32:34;6.30;99.90
17421;DHT22;8828;48.800;9.540;2023-04-03T03:35:04;6.20;99.90
17421;DHT22;8828;48.800;9.540;2023-04-03T03:37:32;6.30;99.90
17421;DHT22;8828;48.800;9.540;2023-04-03T03:40:00;6.30;99.90
17421;DHT22;8828;48.800;9.540;2023-04-03T03:42:28;6.30;99.90
17421;DHT22;8828;48.800;9.540;2023-04-03T03:44:56;6.30;99.90
17421;DHT22;8828;48.800;9.540;2023-04-03T03:47:24;6.30;99.90
17421;DHT22;8828;48.800;9.540;2023-04-03T03:49:52;6.30;99.90
17421;DHT22;8828;48.800;9.540;2023-04-03T03:52:21;6.30;99.90
17421;DHT22;8828;48.800;9.540;2023-04-03T03:54:49;6.30;99.90
17421;DHT22;8828;48.800;9.540;2023-04-03T03:57:17;6.30;99.90
17421;DHT22;8828;48.800;9.540;2023-04-03T03:59:45;6.30;99.90
17421;DHT22;8828;48.800;9.540;2023-04-03T04:02:14;6.30;99.90
17421;DHT22;8828;48.800;9.540;2023-04-03T04:04:42;6.30;99.90
17421;DHT22;8828;48.800;9.540;2023-04-03T04:07:10;6.30;99.90
17421;DHT22;8828;48.800;9.540;2023-04-03T04:09:40;6.30;99.90
17421;DHT22;8828;48.800;9.540;2023-04-03T04:12:08;6.30;99.90
17421;DHT22;8828;48.800;9.540;2023-04-03T04:14:35;6.30;99.90
17421;DHT22;8828;48.800;9.540;2023-04-03T04:17:03;6.30;99.90
17421;DHT22;8828;48.800;9.540;2023-04-03T04:19:31;6.30;99.90
17421;DHT22;8828;48.800;9.540;2023-04-03T04:21:59;6.20;99.90
17421;DHT22;8828;48.800;9.540;2023-04-03T04:24:27;6.20;99.90
17421;DHT22;8828;48.800;9.540;2023-04-03T04:26:57;6.20;99.90
17421;DHT22;8828;48.800;9.540;2023-04-03T04:29:25;6.20;99.90
17421;DHT22;8828;48.800;9.540;2023-04-03T04:31:53;6.20;99.90
17421;DHT22;8828;48.800;9.540;2023-04-03T04:34:20;6.20;99.90
17421;DHT22;8828;48.800;9.540;2023-04-03T04:36:48;6.20;99.90
17421;DHT22;8828;48.800;9.540;2023-04-03T04:39:17;6.20;99.90
17421;DHT22;8828;48.800;9.540;2023-04-03T04:41:45;6.20;99.90
17421;DHT22;8828;48.800;9.540;2023-04-03T04:44:14;6.10;99.90
17421;DHT22;8828;48.800;9.540;2023-04-03T04:46:42;6.10;99.90
17421;DHT22;8828;48.800;9.540;2023-04-03T04:49:10;6.20;99.90
17421;DHT22;8828;48.800;9.540;2023-04-03T04:51:38;6.10;99.90
17421;DHT22;8828;48.800;9.540;2023-04-03T04:54:18;6.10;99.90
17421;DHT22;8828;48.800;9.540;2023-04-03T04:56:46;6.10;99.90
17421;DHT22;8828;48.800;9.540;2023-04-03T04:59:15;6.10;99.90
17421;DHT22;8828;48.800;9.540;2023-04-03T05:01:46;6.10;99.90
17421;DHT22;8828;48.800;9.540;2023-04-03T05:04:14;6.00;99.90
17421;DHT22;8828;48.800;9.540;2023-04-03T05:06:42;6.00;99.90
17421;DHT22;8828;48.800;9.540;2023-04-03T05:09:10;6.00;99.90
17421;DHT22;8828;48.800;9.540;2023-04-03T05:11:38;6.00;99.90
17421;DHT22;8828;48.800;9.540;2023-04-03T05:14:06;5.90;99.90
17421;DHT22;8828;48.800;9.540;2023-04-03T05:16:36;5.90;99.90
17421;DHT22;8828;48.800;9.540;2023-04-03T05:19:04;5.90;99.90
17421;DHT22;8828;48.800;9.540;2023-04-03T05:21:32;5.90;99.90
17421;DHT22;8828;48.800;9.540;2023-04-03T05:24:00;5.80;99.90
17421;DHT22;8828;48.800;9.540;2023-04-03T05:26:29;5.80;99.90
17421;DHT22;8828;48.800;9.540;2023-04-03T05:28:57;5.80;99.90
17421;DHT22;8828;48.800;9.540;2023-04-03T05:31:25;5.80;99.90
17421;DHT22;8828;48.800;9.540;2023-04-03T05:33:57;5.80;99.90
17421;DHT22;8828;48.800;9.540;2023-04-03T05:36:25;5.80;99.90
17421;DHT22;8828;48.800;9.540;2023-04-03T05:38:53;5.80;99.90
17421;DHT22;8828;48.800;9.540;2023-04-03T05:41:23;5.80;99.90
17421;DHT22;8828;48.800;9.540;2023-04-03T05:43:51;5.80;99.90
17421;DHT22;8828;48.800;9.540;2023-04-03T05:46:19;5.90;99.90
17421;DHT22;8828;48.800;9.540;2023-04-03T05:48:49;5.90;99.90
17421;DHT22;8828;48.800;9.540;2023-04-03T05:51:21;5.90;99.90
17421;DHT22;8828;48.800;9.540;2023-04-03T05:53:52;6.00;99.90
17421;DHT22;8828;48.800;9.540;2023-04-03T05:56:22;6.10;99.90
17421;DHT22;8828;48.800;9.540;2023-04-03T05:58:50;6.10;99.90
17421;DHT22;8828;48.800;9.540;2023-04-03T06:01:18;6.10;99.90
17421;DHT22;8828;48.800;9.540;2023-04-03T06:03:46;6.20;99.90
17421;DHT22;8828;48.800;9.540;2023-04-03T06:06:14;6.20;99.90
17421;DHT22;8828;48.800;9.540;2023-04-03T06:08:44;6.30;99.90
17421;DHT22;8828;48.800;9.540;2023-04-03T06:11:12;6.30;99.90
17421;DHT22;8828;48.800;9.540;2023-04-03T06:13:41;6.30;99.90
17421;DHT22;8828;48.800;9.540;2023-04-03T06:16:10;6.40;99.90
17421;DHT22;8828;48.800;9.540;2023-04-03T06:18:41;6.40;99.90
17421;DHT22;8828;48.800;9.540;2023-04-03T06:21:09;6.50;99.90
17421;DHT22;8828;48.800;9.540;2023-04-03T06:23:37;6.50;99.90
17421;DHT22;8828;48.800;9.540;2023-04-03T06:26:06;6.50;99.90
17421;DHT22;8828;48.800;9.540;2023-04-03T06:28:34;6.60;99.90
17421;DHT22;8828;48.800;9.540;2023-04-03T06:31:02;6.60;99.90
17421;DHT22;8828;48.800;9.540;2023-04-03T06:33:30;6.70;99.90
17421;DHT22;8828;48.800;9.540;2023-04-03T06:35:58;6.70;99.90
17421;DHT22;8828;48.800;9.540;2023-04-03T06:38:27;6.80;99.90
17421;DHT22;8828;48.800;9.540;2023-04-03T06:40:54;6.80;99.90
17421;DHT22;8828;48.800;9.540;2023-04-03T06:43:24;6.90;99.90
17421;DHT22;8828;48.800;9.540;2023-04-03T06:45:52;6.90;99.90
17421;DHT22;8828;48.800;9.540;2023-04-03T06:48:20;6.90;99.90
17421;DHT22;8828;48.800;9.540;2023-04-03T06:50:48;7.00;99.90
17421;DHT22;8828;48.800;9.540;2023-04-03T06:53:16;7.00;99.90
17421;DHT22;8828;48.800;9.540;2023-04-03T06:55:44;7.10;99.90
17421;DHT22;8828;48.800;9.540;2023-04-03T06:58:13;7.10;99.90
17421;DHT22;8828;48.800;9.540;2023-04-03T07:00:46;7.20;99.90
17421;DHT22;8828;48.800;9.540;2023-04-03T07:03:14;7.30;99.90
17421;DHT22;8828;48.800;9.540;2023-04-03T07:05:42;7.40;99.90
17421;DHT22;8828;48.800;9.540;2023-04-03T07:08:11;7.50;99.90
17421;DHT22;8828;48.800;9.540;2023-04-03T07:10:39;7.60;99.90
17421;DHT22;8828;48.800;9.540;2023-04-03T07:13:07;7.80;99.90
17421;DHT22;8828;48.800;9.540;2023-04-03T07:15:35;7.80;99.90
17421;DHT22;8828;48.800;9.540;2023-04-03T07:18:05;7.80;99.90
17421;DHT22;8828;48.800;9.540;2023-04-03T07:20:33;7.90;99.90
17421;DHT22;8828;48.800;9.540;2023-04-03T07:23:02;7.90;99.90
17421;DHT22;8828;48.800;9.540;2023-04-03T07:25:30;8.00;99.90
17421;DHT22;8828;48.800;9.540;2023-04-03T07:27:58;8.00;99.90
17421;DHT22;8828;48.800;9.540;2023-04-03T07:30:26;8.10;99.90
17421;DHT22;8828;48.800;9.540;2023-04-03T07:32:54;8.10;99.90
17421;DHT22;8828;48.800;9.540;2023-04-03T07:35:23;8.10;99.90
17421;DHT22;8828;48.800;9.540;2023-04-03T07:37:51;8.20;99.90
17421;DHT22;8828;48.800;9.540;2023-04-03T07:40:19;8.20;99.90
17421;DHT22;8828;48.800;9.540;2023-04-03T07:42:48;8.30;99.90
17421;DHT22;8828;48.800;9.540;2023-04-03T07:45:17;8.30;99.90
17421;DHT22;8828;48.800;9.540;2023-04-03T07:47:45;8.50;99.90
17421;DHT22;8828;48.800;9.540;2023-04-03T07:50:14;8.60;99.90
17421;DHT22;8828;48.800;9.540;2023-04-03T07:52:44;8.60;99.90
17421;DHT22;8828;48.800;9.540;2023-04-03T07:55:12;8.50;99.90
17421;DHT22;8828;48.800;9.540;2023-04-03T07:57:41;8.40;99.90
17421;DHT22;8828;48.800;9.540;2023-04-03T08:00:10;8.30;99.90
17421;DHT22;8828;48.800;9.540;2023-04-03T08:02:38;8.20;99.90
17421;DHT22;8828;48.800;9.540;2023-04-03T08:05:07;8.20;99.90
17421;DHT22;8828;48.800;9.540;2023-04-03T08:07:37;8.30;99.90
17421;DHT22;8828;48.800;9.540;2023-04-03T08:10:07;8.40;99.90
17421;DHT22;8828;48.800;9.540;2023-04-03T08:12:35;8.50;99.90
17421;DHT22;8828;48.800;9.540;2023-04-03T08:15:05;8.70;99.90
17421;DHT22;8828;48.800;9.540;2023-04-03T08:17:33;8.80;99.90
17421;DHT22;8828;48.800;9.540;2023-04-03T08:20:02;8.70;99.90
17421;DHT22;8828;48.800;9.540;2023-04-03T08:22:31;8.70;99.90
17421;DHT22;8828;48.800;9.540;2023-04-03T08:24:59;8.60;99.90
17421;DHT22;8828;48.800;9.540;2023-04-03T08:27:29;8.70;99.90
17421;DHT22;8828;48.800;9.540;2023-04-03T08:29:58;8.80;99.90
17421;DHT22;8828;48.800;9.540;2023-04-03T08:32:26;8.90;99.90
17421;DHT22;8828;48.800;9.540;2023-04-03T08:34:54;9.60;99.90
17421;DHT22;8828;48.800;9.540;2023-04-03T08:37:22;10.50;99.90
17421;DHT22;8828;48.800;9.540;2023-04-03T08:39:51;11.00;99.90
17421;DHT22;8828;48.800;9.540;2023-04-03T08:42:32;11.30;99.90
17421;DHT22;8828;48.800;9.540;2023-04-03T08:45:08;11.40;99.90
17421;DHT22;8828;48.800;9.540;2023-04-03T08:47:42;11.40;99.90
17421;DHT22;8828;48.800;9.540;2023-04-03T08:50:13;11.70;99.90
17421;DHT22;8828;48.800;9.540;2023-04-03T08:52:45;12.30;99.90
17421;DHT22;8828;48.800;9.540;2023-04-03T08:55:22;13.00;99.90
17421;DHT22;8828;48.800;9.540;2023-04-03T08:57:59;13.40;99.90
17421;DHT22;8828;48.800;9.540;2023-04-03T09:00:30;13.20;99.90
17421;DHT22;8828;48.800;9.540;2023-04-03T09:03:00;12.90;99.90
17421;DHT22;8828;48.800;9.540;2023-04-03T09:05:35;12.20;99.90
17421;DHT22;8828;48.800;9.540;2023-04-03T09:08:14;11.80;99.90
17421;DHT22;8828;48.800;9.540;2023-04-03T09:10:46;11.40;99.90
17421;DHT22;8828;48.800;9.540;2023-04-03T09:13:24;11.20;99.90
17421;DHT22;8828;48.800;9.540;2023-04-03T09:15:55;11.30;99.90
17421;DHT22;8828;48.800;9.540;2023-04-03T09:18:27;11.20;99.90
17421;DHT22;8828;48.800;9.540;2023-04-03T09:21:01;11.00;99.90
17421;DHT22;8828;48.800;9.540;2023-04-03T09:23:36;10.90;99.90
17421;DHT22;8828;48.800;9.540;2023-04-03T09:26:09;10.70;99.90
17421;DHT22;8828;48.800;9.540;2023-04-03T09:28:40;10.50;99.90
17421;DHT22;8828;48.800;9.540;2023-04-03T09:31:20;10.60;99.90
17421;DHT22;8828;48.800;9.540;2023-04-03T09:33:50;11.10;99.90
17421;DHT22;8828;48.800;9.540;2023-04-03T09:36:40;11.80;99.90
17421;DHT22;8828;48.800;9.540;2023-04-03T09:39:12;12.20;99.90
17421;DHT22;8828;48.800;9.540;2023-04-03T09:41:42;12.20;99.90
17421;DHT22;8828;48.800;9.540;2023-04-03T09:44:24;12.00;99.80
17421;DHT22;8828;48.800;9.540;2023-04-03T09:46:52;11.60;99.30
17421;DHT22;8828;48.800;9.540;2023-04-03T09:49:20;11.10;99.70
17421;DHT22;8828;48.800;9.540;2023-04-03T09:51:49;10.70;99.90
17421;DHT22;8828;48.800;9.540;2023-04-03T09:54:40;10.40;99.90
17421;DHT22;8828;48.800;9.540;2023-04-03T09:57:11;10.00;99.90
17421;DHT22;8828;48.800;9.540;2023-04-03T09:59:45;9.90;99.90
17421;DHT22;8828;48.800;9.540;2023-04-03T10:02:35;9.80;99.90
17421;DHT22;8828;48.800;9.540;2023-04-03T10:05:23;9.60;99.90
17421;DHT22;8828;48.800;9.540;2023-04-03T10:08:08;9.50;99.90
17421;DHT22;8828;48.800;9.540;2023-04-03T10:10:37;9.40;99.90
17421;DHT22;8828;48.800;9.540;2023-04-03T10:13:07;9.40;99.90
17421;DHT22;8828;48.800;9.540;2023-04-03T10:15:43;9.40;99.90
17421;DHT22;8828;48.800;9.540;2023-04-03T10:18:29;9.30;99.90
17421;DHT22;8828;48.800;9.540;2023-04-03T10:21:03;9.40;99.90
17421;DHT22;8828;48.800;9.540;2023-04-03T10:23:41;9.50;99.90
17421;DHT22;8828;48.800;9.540;2023-04-03T10:26:17;9.60;99.90
17421;DHT22;8828;48.800;9.540;2023-04-03T10:28:57;9.60;99.90
17421;DHT22;8828;48.800;9.540;2023-04-03T10:31:35;9.70;99.90
17421;DHT22;8828;48.800;9.540;2023-04-03T10:34:05;9.60;99.90
17421;DHT22;8828;48.800;9.540;2023-04-03T10:36:38;9.50;99.90
17421;DHT22;8828;48.800;9.540;2023-04-03T10:39:19;9.50;99.90
17421;DHT22;8828;48.800;9.540;2023-04-03T10:42:01;9.40;99.90
17421;DHT22;8828;48.800;9.540;2023-04-03T10:44:56;9.30;99.90
17421;DHT22;8828;48.800;9.540;2023-04-03T10:47:34;9.30;99.90
17421;DHT22;8828;48.800;9.540;2023-04-03T10:50:23;9.30;99.90
17421;DHT22;8828;48.800;9.540;2023-04-03T10:52:59;9.40;99.00
17421;DHT22;8828;48.800;9.540;2023-04-03T10:55:35;9.60;98.10
17421;DHT22;8828;48.800;9.540;2023-04-03T10:58:16;9.90;97.40
17421;DHT22;8828;48.800;9.540;2023-04-03T11:00:49;10.10;97.00
17421;DHT22;8828;48.800;9.540;2023-04-03T11:03:27;10.10;95.50
17421;DHT22;8828;48.800;9.540;2023-04-03T11:05:59;10.10;95.60
17421;DHT22;8828;48.800;9.540;2023-04-03T11:08:34;10.00;95.10
17421;DHT22;8828;48.800;9.540;2023-04-03T11:11:08;9.90;95.30
17421;DHT22;8828;48.800;9.540;2023-04-03T11:13:40;9.80;95.70
17421;DHT22;8828;48.800;9.540;2023-04-03T11:16:14;9.70;95.80
17421;DHT22;8828;48.800;9.540;2023-04-03T11:18:49;9.70;96.20
17421;DHT22;8828;48.800;9.540;2023-04-03T11:21:22;9.60;96.10
17421;DHT22;8828;48.800;9.540;2023-04-03T11:23:52;9.60;96.20
17421;DHT22;8828;48.800;9.540;2023-04-03T11:26:22;9.60;96.40
17421;DHT22;8828;48.800;9.540;2023-04-03T11:28:53;9.70;96.80
17421;DHT22;8828;48.800;9.540;2023-04-03T11:31:33;9.80;96.80
17421;DHT22;8828;48.800;9.540;2023-04-03T11:34:14;10.00;96.80
17421;DHT22;8828;48.800;9.540;2023-04-03T11:36:47;10.10;95.80
17421;DHT22;8828;48.800;9.540;2023-04-03T11:39:21;10.00;95.40
17421;DHT22;8828;48.800;9.540;2023-04-03T11:41:50;10.00;95.30
17421;DHT22;8828;48.800;9.540;2023-04-03T11:44:34;10.00;95.30
17421;DHT22;8828;48.800;9.540;2023-04-03T11:47:06;10.00;95.10
17421;DHT22;8828;48.800;9.540;2023-04-03T11:49:57;10.00;94.60
17421;DHT22;8828;48.800;9.540;2023-04-03T11:53:01;10.10;94.30
17421;DHT22;8828;48.800;9.540;2023-04-03T11:55:59;10.30;94.30
17421;DHT22;8828;48.800;9.540;2023-04-03T11:58:30;10.70;93.70
17421;DHT22;8828;48.800;9.540;2023-04-03T12:01:04;11.00;93.50
17421;DHT22;8828;48.800;9.540;2023-04-03T12:03:58;11.30;93.50
17421;DHT22;8828;48.800;9.540;2023-04-03T12:06:58;11.60;93.00
17421;DHT22;8828;48.800;9.540;2023-04-03T12:09:33;11.80;93.60
17421;DHT22;8828;48.800;9.540;2023-04-03T12:18:59;11.90;92.50
17421;DHT22;8828;48.800;9.540;2023-04-03T12:22:05;11.90;92.90
17421;DHT22;8828;48.800;9.540;2023-04-03T12:24:35;11.80;92.20
17421;DHT22;8828;48.800;9.540;2023-04-03T12:27:15;11.80;91.40
17421;DHT22;8828;48.800;9.540;2023-04-03T12:29:50;11.60;90.80
17421;DHT22;8828;48.800;9.540;2023-04-03T12:32:32;11.40;90.80
17421;DHT22;8828;48.800;9.540;2023-04-03T12:35:14;11.20;91.80
17421;DHT22;8828;48.800;9.540;2023-04-03T12:38:10;11.00;92.50
17421;DHT22;8828;48.800;9.540;2023-04-03T12:40:49;10.90;92.10
17421;DHT22;8828;48.800;9.540;2023-04-03T12:43:36;10.90;91.80
17421;DHT22;8828;48.800;9.540;2023-04-03T12:46:12;11.00;92.10
17421;DHT22;8828;48.800;9.540;2023-04-03T12:48:50;11.10;92.10
17421;DHT22;8828;48.800;9.540;2023-04-03T12:51:22;11.10;91.70
17421;DHT22;8828;48.800;9.540;2023-04-03T12:54:00;11.00;91.10
17421;DHT22;8828;48.800;9.540;2023-04-03T12:56:29;10.80;90.90
17421;DHT22;8828;48.800;9.540;2023-04-03T12:59:14;10.70;91.00
17421;DHT22;8828;48.800;9.540;2023-04-03T13:01:43;10.70;91.10
17421;DHT22;8828;48.800;9.540;2023-04-03T13:04:12;10.70;91.50
17421;DHT22;8828;48.800;9.540;2023-04-03T13:06:41;10.70;91.40
17421;DHT22;8828;48.800;9.540;2023-04-03T13:09:21;10.70;91.20
17421;DHT22;8828;48.800;9.540;2023-04-03T13:11:53;10.80;90.10
17421;DHT22;8828;48.800;9.540;2023-04-03T13:14:25;10.90;89.20
17421;DHT22;8828;48.800;9.540;2023-04-03T13:16:57;11.10;90.00
17421;DHT22;8828;48.800;9.540;2023-04-03T13:19:26;11.10;90.00
17421;DHT22;8828;48.800;9.540;2023-04-03T13:22:00;11.10;90.00
17421;DHT22;8828;48.800;9.540;2023-04-03T13:24:33;11.00;90.40
17421;DHT22;8828;48.800;9.540;2023-04-03T13:27:02;10.90;90.20
17421;DHT22;8828;48.800;9.540;2023-04-03T13:29:33;10.90;90.00
17421;DHT22;8828;48.800;9.540;2023-04-03T13:32:03;10.90;90.50
17421;DHT22;8828;48.800;9.540;2023-04-03T13:34:37;10.90;90.70
17421;DHT22;8828;48.800;9.540;2023-04-03T13:37:05;11.00;90.50
17421;DHT22;8828;48.800;9.540;2023-04-03T13:39:37;11.00;90.60
17421;DHT22;8828;48.800;9.540;2023-04-03T13:42:16;11.00;89.20
17421;DHT22;8828;48.800;9.540;2023-04-03T13:44:44;12.30;89.10
17421;DHT22;8828;48.800;9.540;2023-04-03T13:47:17;14.40;84.70
17421;DHT22;8828;48.800;9.540;2023-04-03T13:49:59;16.40;78.00
17421;DHT22;8828;48.800;9.540;2023-04-03T13:52:30;17.40;71.40
17421;DHT22;8828;48.800;9.540;2023-04-03T13:55:02;17.20;68.10
17421;DHT22;8828;48.800;9.540;2023-04-03T13:57:35;16.60;68.10
17421;DHT22;8828;48.800;9.540;2023-04-03T14:00:19;15.80;66.70
17421;DHT22;8828;48.800;9.540;2023-04-03T14:02:48;14.80;67.90
17421;DHT22;8828;48.800;9.540;2023-04-03T14:05:16;14.10;70.00
17421;DHT22;8828;48.800;9.540;2023-04-03T14:07:47;13.60;70.00
17421;DHT22;8828;48.800;9.540;2023-04-03T14:10:17;13.10;72.30
17421;DHT22;8828;48.800;9.540;2023-04-03T14:12:45;12.80;74.00
17421;DHT22;8828;48.800;9.540;2023-04-03T14:15:18;12.40;75.30
17421;DHT22;8828;48.800;9.540;2023-04-03T14:17:48;12.10;76.60
17421;DHT22;8828;48.800;9.540;2023-04-03T14:20:20;11.90;77.30
17421;DHT22;8828;48.800;9.540;2023-04-03T14:22:48;11.60;78.50
17421;DHT22;8828;48.800;9.540;2023-04-03T14:25:19;11.40;79.80
17421;DHT22;8828;48.800;9.540;2023-04-03T14:27:49;11.20;79.70
17421;DHT22;8828;48.800;9.540;2023-04-03T14:30:19;11.00;79.50
17421;DHT22;8828;48.800;9.540;2023-04-03T14:32:48;10.90;79.40
17421;DHT22;8828;48.800;9.540;2023-04-03T14:35:17;10.80;80.50
17421;DHT22;8828;48.800;9.540;2023-04-03T14:37:46;10.70;78.70
17421;DHT22;8828;48.800;9.540;2023-04-03T14:40:19;10.60;78.80
17421;DHT22;8828;48.800;9.540;2023-04-03T14:42:47;10.40;78.70
17421;DHT22;8828;48.800;9.540;2023-04-03T14:45:16;10.30;79.40
17421;DHT22;8828;48.800;9.540;2023-04-03T14:47:47;10.20;81.20
17421;DHT22;8828;48.800;9.540;2023-04-03T14:50:18;10.20;81.80
17421;DHT22;8828;48.800;9.540;2023-04-03T14:52:48;10.20;82.10
17421;DHT22;8828;48.800;9.540;2023-04-03T14:55:19;10.20;83.10
17421;DHT22;8828;48.800;9.540;2023-04-03T14:57:47;10.40;84.80
17421;DHT22;8828;48.800;9.540;2023-04-03T15:00:17;10.50;84.40
17421;DHT22;8828;48.800;9.540;2023-04-03T15:02:46;10.70;84.30
17421;DHT22;8828;48.800;9.540;2023-04-03T15:05:16;10.80;83.50
17421;DHT22;8828;48.800;9.540;2023-04-03T15:07:48;10.80;83.90
17421;DHT22;8828;48.800;9.540;2023-04-03T15:10:20;10.70;82.20
17421;DHT22;8828;48.800;9.540;2023-04-03T15:12:49;10.70;82.50
17421;DHT22;8828;48.800;9.540;2023-04-03T15:15:19;10.60;81.70
17421;DHT22;8828;48.800;9.540;2023-04-03T15:17:51;10.50;81.10
17421;DHT22;8828;48.800;9.540;2023-04-03T15:20:22;10.40;81.10
17421;DHT22;8828;48.800;9.540;2023-04-03T15:22:51;10.40;80.00
17421;DHT22;8828;48.800;9.540;2023-04-03T15:25:20;10.30;80.90
17421;DHT22;8828;48.800;9.540;2023-04-03T15:27:48;10.20;81.40
17421;DHT22;8828;48.800;9.540;2023-04-03T15:30:18;10.20;80.50
17421;DHT22;8828;48.800;9.540;2023-04-03T15:32:46;10.20;81.50
17421;DHT22;8828;48.800;9.540;2023-04-03T15:35:15;10.30;81.40
17421;DHT22;8828;48.800;9.540;2023-04-03T15:37:43;10.30;81.10
17421;DHT22;8828;48.800;9.540;2023-04-03T15:40:11;10.30;80.80
17421;DHT22;8828;48.800;9.540;2023-04-03T15:42:41;10.20;80.60
17421;DHT22;8828;48.800;9.540;2023-04-03T15:45:09;10.20;80.40
17421;DHT22;8828;48.800;9.540;2023-04-03T15:47:37;10.00;79.90
17421;DHT22;8828;48.800;9.540;2023-04-03T15:50:06;10.00;79.30
17421;DHT22;8828;48.800;9.540;2023-04-03T15:52:35;9.90;79.40
17421;DHT22;8828;48.800;9.540;2023-04-03T15:55:03;9.80;79.20
17421;DHT22;8828;48.800;9.540;2023-04-03T15:57:34;9.80;78.70
17421;DHT22;8828;48.800;9.540;2023-04-03T16:00:10;9.80;79.00
17421;DHT22;8828;48.800;9.540;2023-04-03T16:02:38;9.80;79.00
17421;DHT22;8828;48.800;9.540;2023-04-03T16:05:07;9.80;78.90
17421;DHT22;8828;48.800;9.540;2023-04-03T16:07:37;9.80;79.70
17421;DHT22;8828;48.800;9.540;2023-04-03T16:10:06;9.80;80.00
17421;DHT22;8828;48.800;9.540;2023-04-03T16:12:34;9.80;79.50
17421;DHT22;8828;48.800;9.540;2023-04-03T16:15:03;9.90;79.60
17421;DHT22;8828;48.800;9.540;2023-04-03T16:17:34;9.90;79.20
17421;DHT22;8828;48.800;9.540;2023-04-03T16:20:04;9.90;78.10
17421;DHT22;8828;48.800;9.540;2023-04-03T16:22:34;9.80;79.10
17421;DHT22;8828;48.800;9.540;2023-04-03T16:25:03;9.80;80.30
17421;DHT22;8828;48.800;9.540;2023-04-03T16:27:31;9.60;80.00
17421;DHT22;8828;48.800;9.540;2023-04-03T16:29:59;9.60;79.90